createdAt,value
2023-05-16T00:01:30.519Z,8.80
2023-05-16T00:03:58.912Z,10.30
2023-05-16T00:06:27.216Z,9.40
2023-05-16T00:08:55.180Z,9.30
2023-05-16T00:11:23.822Z,9.60
2023-05-16T00:13:51.749Z,9.30
2023-05-16T00:16:21.930Z,9.60
2023-05-16T00:18:50.318Z,9.00
2023-05-16T00:21:19.029Z,8.90
2023-05-16T00:23:47.895Z,8.90
2023-05-16T00:26:15.762Z,9.00
2023-05-16T00:28:45.630Z,9.20
2023-05-16T00:31:13.672Z,9.10
2023-05-16T00:33:41.687Z,8.80
2023-05-16T00:36:09.745Z,9.50
2023-05-16T00:38:37.651Z,9.20
2023-05-16T00:41:05.577Z,9.60
2023-05-16T00:43:33.484Z,9.40
2023-05-16T00:46:02.576Z,8.80
2023-05-16T00:48:31.368Z,9.20
2023-05-16T00:51:03.142Z,9.50
2023-05-16T00:53:31.125Z,9.50
2023-05-16T00:56:00.037Z,9.00
2023-05-16T00:58:32.544Z,9.40
2023-05-16T01:01:04.334Z,9.70
2023-05-16T01:03:32.533Z,9.30
2023-05-16T01:06:01.447Z,9.70
2023-05-16T01:08:29.236Z,9.30
2023-05-16T01:11:30.573Z,9.40
2023-05-16T01:14:22.771Z,9.00
2023-05-16T01:16:56.750Z,9.50
2023-05-16T01:19:55.676Z,9.30
2023-05-16T01:22:46.487Z,9.60
2023-05-16T01:25:51.037Z,9.60
2023-05-16T01:28:20.486Z,9.30
2023-05-16T01:30:51.658Z,9.70
2023-05-16T01:33:19.650Z,9.70
2023-05-16T01:35:55.398Z,9.10
2023-05-16T01:39:01.783Z,9.70
2023-05-16T01:41:50.471Z,9.80
2023-05-16T01:44:31.991Z,8.80
2023-05-16T01:47:08.429Z,9.80
2023-05-16T01:52:20.349Z,10.60
2023-05-16T01:54:53.436Z,10.00
2023-05-16T01:57:25.977Z,10.00
2023-05-16T01:59:54.081Z,9.90
2023-05-16T02:02:21.920Z,9.60
2023-05-16T02:04:51.165Z,9.30
2023-05-16T02:07:19.974Z,9.50
2023-05-16T02:09:47.926Z,9.90
2023-05-16T02:12:16.925Z,9.40
2023-05-16T02:14:44.839Z,9.00
2023-05-16T02:17:12.822Z,9.10
2023-05-16T02:19:40.861Z,9.20
2023-05-16T02:22:08.863Z,8.80
2023-05-16T02:24:37.388Z,9.20
2023-05-16T02:27:05.813Z,9.00
2023-05-16T02:29:33.694Z,9.50
2023-05-16T02:32:01.763Z,9.20
2023-05-16T02:34:29.619Z,9.20
2023-05-16T02:36:57.506Z,9.20
2023-05-16T02:39:25.725Z,10.00
2023-05-16T02:41:53.921Z,10.10
2023-05-16T02:44:22.282Z,9.20
2023-05-16T02:46:50.296Z,9.00
2023-05-16T02:49:18.855Z,9.10
2023-05-16T02:51:47.542Z,8.70
2023-05-16T02:54:15.665Z,8.40
2023-05-16T02:56:44.809Z,9.20
2023-05-16T02:59:14.069Z,9.50
2023-05-16T03:01:42.070Z,8.90
2023-05-16T03:04:10.534Z,8.30
2023-05-16T03:06:38.515Z,8.40
2023-05-16T03:09:08.100Z,8.80
2023-05-16T03:11:37.053Z,9.00
2023-05-16T03:14:06.012Z,8.90
2023-05-16T03:16:34.473Z,8.90
2023-05-16T03:19:03.691Z,8.60
2023-05-16T03:21:31.558Z,9.00
2023-05-16T03:23:59.582Z,8.80
2023-05-16T03:26:27.610Z,8.90
2023-05-16T03:28:55.654Z,8.50
2023-05-16T03:31:23.740Z,8.80
2023-05-16T03:33:51.651Z,8.60
2023-05-16T03:36:24.404Z,8.30
2023-05-16T03:38:52.405Z,9.00
2023-05-16T03:41:22.540Z,8.00
2023-05-16T03:43:50.500Z,9.10
2023-05-16T03:46:19.421Z,8.90
2023-05-16T03:48:47.410Z,8.40
2023-05-16T03:51:15.340Z,9.00
2023-05-16T03:53:43.321Z,8.10
2023-05-16T03:56:11.271Z,8.80
2023-05-16T03:58:39.173Z,8.30
2023-05-16T04:01:07.224Z,8.40
2023-05-16T04:03:35.269Z,8.00
2023-05-16T04:06:03.597Z,8.10
2023-05-16T04:08:32.185Z,8.20
2023-05-16T04:11:00.051Z,7.90
2023-05-16T04:13:28.106Z,7.70
2023-05-16T04:15:56.104Z,7.80
2023-05-16T04:18:24.661Z,8.10
2023-05-16T04:20:52.539Z,7.70
2023-05-16T04:23:20.840Z,7.60
2023-05-16T04:25:48.791Z,7.70
2023-05-16T04:28:16.776Z,7.60
2023-05-16T04:30:44.613Z,7.40
2023-05-16T04:33:12.776Z,7.50
2023-05-16T04:35:40.788Z,7.20
2023-05-16T04:38:09.240Z,9.40
2023-05-16T04:40:37.123Z,9.50
2023-05-16T04:43:04.982Z,14.10
2023-05-16T04:45:33.015Z,7.80
2023-05-16T04:48:01.878Z,7.50
2023-05-16T04:50:30.098Z,7.80
2023-05-16T04:52:58.065Z,7.30
2023-05-16T04:55:26.603Z,7.80
2023-05-16T04:57:55.170Z,7.30
2023-05-16T05:00:23.219Z,7.40
2023-05-16T05:02:51.199Z,8.00
2023-05-16T05:05:19.411Z,7.70
2023-05-16T05:07:48.705Z,8.00
2023-05-16T05:10:16.636Z,7.70
2023-05-16T05:12:44.462Z,7.90
2023-05-16T05:15:13.840Z,8.00
2023-05-16T05:17:41.836Z,7.80
2023-05-16T05:20:11.419Z,8.20
2023-05-16T05:22:39.262Z,8.20
2023-05-16T05:25:07.663Z,8.10
2023-05-16T05:27:36.057Z,8.20
2023-05-16T05:30:04.434Z,8.20
2023-05-16T05:32:32.674Z,7.70
2023-05-16T05:35:01.229Z,7.80
2023-05-16T05:37:30.969Z,7.50
2023-05-16T05:39:58.884Z,8.00
2023-05-16T05:42:26.868Z,7.80
2023-05-16T05:44:55.372Z,7.70
2023-05-16T05:47:23.460Z,8.30
2023-05-16T05:49:51.308Z,7.60
2023-05-16T05:52:19.183Z,8.00
2023-05-16T05:54:48.385Z,8.10
2023-05-16T05:57:16.411Z,7.90
2023-05-16T05:59:44.327Z,7.70
2023-05-16T06:02:12.385Z,8.10
2023-05-16T06:04:43.293Z,7.70
2023-05-16T06:07:11.165Z,7.20
2023-05-16T06:09:39.183Z,8.10
2023-05-16T06:12:07.471Z,7.00
2023-05-16T06:14:35.574Z,7.30
2023-05-16T06:17:03.703Z,7.10
2023-05-16T06:19:32.286Z,7.50
2023-05-16T06:22:00.105Z,7.50
2023-05-16T06:24:30.382Z,6.70
2023-05-16T06:26:58.247Z,6.30
2023-05-16T06:29:26.118Z,6.20
2023-05-16T06:31:54.166Z,5.80
2023-05-16T06:34:28.206Z,6.70
2023-05-16T06:36:56.173Z,5.60
2023-05-16T06:39:24.074Z,6.30
2023-05-16T06:41:53.174Z,5.50
2023-05-16T06:44:24.070Z,5.90
2023-05-16T06:46:52.008Z,6.10
2023-05-16T06:49:20.060Z,6.20
2023-05-16T06:51:48.068Z,6.10
2023-05-16T06:54:16.739Z,7.30
2023-05-16T06:56:46.146Z,5.80
2023-05-16T06:59:14.166Z,5.60
2023-05-16T07:01:42.933Z,6.00
2023-05-16T07:04:11.458Z,6.30
2023-05-16T07:06:39.622Z,6.10
2023-05-16T07:09:07.519Z,6.60
2023-05-16T07:11:35.434Z,6.20
2023-05-16T07:14:03.338Z,6.30
2023-05-16T07:16:31.402Z,5.80
2023-05-16T07:19:00.392Z,5.20
2023-05-16T07:21:29.450Z,5.60
2023-05-16T07:23:58.246Z,5.70
2023-05-16T07:26:27.193Z,5.60
2023-05-16T07:28:55.922Z,6.10
2023-05-16T07:31:24.850Z,5.60
2023-05-16T07:33:54.059Z,4.90
2023-05-16T07:36:22.051Z,5.00
2023-05-16T07:38:50.057Z,5.10
2023-05-16T07:41:18.043Z,5.20
2023-05-16T07:43:46.511Z,5.30
2023-05-16T07:46:14.534Z,5.00
2023-05-16T07:48:43.099Z,5.20
2023-05-16T07:51:11.110Z,5.20
2023-05-16T07:53:39.034Z,5.20
2023-05-16T07:56:08.779Z,6.10
2023-05-16T07:58:36.792Z,5.80
2023-05-16T08:01:04.941Z,5.80
2023-05-16T08:03:33.069Z,5.40
2023-05-16T08:06:01.671Z,6.00
2023-05-16T08:08:29.684Z,5.30
2023-05-16T08:10:57.741Z,5.80
2023-05-16T08:13:25.783Z,5.00
2023-05-16T08:15:53.838Z,4.90
2023-05-16T08:18:22.564Z,4.20
2023-05-16T08:20:51.633Z,5.20
2023-05-16T08:23:19.559Z,5.10
2023-05-16T08:25:47.700Z,4.70
2023-05-16T08:28:15.727Z,4.40
2023-05-16T08:30:45.229Z,4.00
2023-05-16T08:33:16.654Z,3.80
2023-05-16T08:35:46.967Z,4.90
2023-05-16T08:38:15.765Z,4.40
2023-05-16T08:40:45.433Z,4.20
2023-05-16T08:43:14.288Z,4.30
2023-05-16T08:45:43.174Z,4.30
2023-05-16T08:48:12.444Z,4.30
2023-05-16T08:50:43.247Z,4.20
2023-05-16T08:53:15.307Z,4.20
2023-05-16T08:55:48.775Z,4.40
2023-05-16T08:58:17.797Z,3.90
2023-05-16T09:00:48.916Z,4.00
2023-05-16T09:03:21.036Z,3.90
2023-05-16T09:05:50.574Z,4.90
2023-05-16T09:08:18.503Z,3.90
2023-05-16T09:10:46.510Z,3.70
2023-05-16T09:13:15.614Z,3.60
2023-05-16T09:15:43.575Z,3.60
2023-05-16T09:18:15.101Z,3.80
2023-05-16T09:20:50.507Z,3.80
2023-05-16T09:23:25.662Z,3.70
2023-05-16T09:25:54.238Z,4.10
2023-05-16T09:28:23.186Z,3.80
2023-05-16T09:30:54.672Z,3.60
2023-05-16T09:33:24.463Z,3.60
2023-05-16T09:36:03.540Z,3.60
2023-05-16T09:38:31.560Z,3.40
2023-05-16T09:40:59.637Z,4.20
2023-05-16T09:43:27.544Z,3.60
2023-05-16T09:46:00.332Z,3.30
2023-05-16T09:48:28.925Z,3.20
2023-05-16T09:51:04.889Z,3.40
2023-05-16T09:53:34.491Z,3.60
2023-05-16T09:56:10.583Z,3.10
2023-05-16T09:58:41.449Z,3.40
2023-05-16T10:01:11.963Z,3.30
2023-05-16T10:03:42.797Z,3.70
2023-05-16T10:06:13.417Z,3.90
2023-05-16T10:08:43.962Z,4.50
2023-05-16T10:11:12.980Z,3.80
2023-05-16T10:13:42.100Z,4.60
2023-05-16T10:16:14.963Z,4.80
2023-05-16T10:18:44.053Z,4.20
2023-05-16T10:21:18.627Z,4.50
2023-05-16T10:23:50.781Z,4.70
2023-05-16T10:26:21.926Z,5.90
2023-05-16T10:28:52.128Z,5.50
2023-05-16T10:31:21.551Z,6.50
2023-05-16T10:33:49.655Z,6.70
2023-05-16T10:36:18.950Z,6.70
2023-05-16T10:38:47.934Z,7.00
2023-05-16T10:41:18.119Z,7.30
2023-05-16T10:43:58.164Z,6.80
2023-05-16T10:46:31.344Z,8.00
2023-05-16T10:48:59.467Z,7.60
2023-05-16T10:51:36.947Z,8.80
2023-05-16T10:54:15.340Z,9.10
2023-05-16T10:56:43.954Z,8.80
2023-05-16T10:59:27.195Z,9.10
2023-05-16T11:01:57.039Z,8.90
2023-05-16T11:04:46.274Z,8.40
2023-05-16T11:07:17.920Z,8.20
2023-05-16T11:09:47.060Z,6.70
2023-05-16T11:12:16.192Z,6.90
2023-05-16T11:14:45.754Z,6.80
2023-05-16T11:17:23.958Z,6.70
2023-05-16T11:20:00.063Z,6.70
2023-05-16T11:22:41.141Z,5.90
2023-05-16T11:25:11.198Z,6.10
2023-05-16T11:27:45.903Z,6.10
2023-05-16T11:30:20.403Z,5.90
2023-05-16T11:32:50.926Z,5.90
2023-05-16T11:35:19.570Z,6.10
2023-05-16T11:37:47.820Z,6.10
2023-05-16T11:40:17.592Z,6.80
2023-05-16T11:42:48.465Z,6.30
2023-05-16T11:45:19.852Z,7.10
2023-05-16T11:47:50.220Z,6.60
2023-05-16T11:50:23.800Z,6.70
2023-05-16T11:52:54.756Z,6.30
2023-05-16T11:55:41.344Z,6.30
2023-05-16T11:58:12.944Z,6.60
2023-05-16T12:00:49.923Z,7.30
2023-05-16T12:03:20.720Z,6.70
2023-05-16T12:05:53.789Z,7.00
2023-05-16T12:08:22.608Z,7.90
2023-05-16T12:10:52.760Z,7.80
2023-05-16T12:13:24.088Z,8.10
2023-05-16T12:15:53.396Z,8.40
2023-05-16T12:18:22.361Z,8.50
2023-05-16T12:20:52.793Z,8.50
2023-05-16T12:23:20.875Z,8.50
2023-05-16T12:25:49.751Z,9.60
2023-05-16T12:28:17.793Z,9.00
2023-05-16T12:30:48.413Z,10.10
2023-05-16T12:33:17.523Z,9.40
2023-05-16T12:35:48.453Z,9.70
2023-05-16T12:38:18.626Z,9.60
2023-05-16T12:40:48.720Z,10.50
2023-05-16T12:43:22.124Z,9.40
2023-05-16T12:45:58.606Z,10.00
2023-05-16T12:48:35.530Z,10.20
2023-05-16T12:51:18.829Z,9.20
2023-05-16T12:54:05.784Z,9.10
2023-05-16T12:56:42.412Z,9.20
2023-05-16T12:59:12.549Z,9.50
2023-05-16T13:01:42.322Z,10.00
2023-05-16T13:04:15.729Z,9.40
2023-05-16T13:06:56.683Z,9.30
2023-05-16T13:09:32.022Z,9.30
2023-05-16T13:12:01.547Z,8.80
2023-05-16T13:14:29.629Z,9.00
2023-05-16T13:16:57.627Z,9.40
2023-05-16T13:19:25.997Z,10.60
2023-05-16T13:21:54.594Z,9.80
2023-05-16T13:24:22.490Z,10.30
2023-05-16T13:26:50.445Z,9.60
2023-05-16T13:29:18.387Z,9.80
2023-05-16T13:31:46.480Z,9.20
2023-05-16T13:34:14.338Z,10.40
2023-05-16T13:36:54.035Z,9.80
2023-05-16T13:39:23.673Z,9.80
2023-05-16T13:41:52.768Z,9.60
2023-05-16T13:44:22.932Z,9.20
2023-05-16T13:46:51.694Z,9.40
2023-05-16T13:49:19.758Z,9.50
2023-05-16T13:51:48.477Z,9.20
2023-05-16T13:54:17.687Z,9.60
2023-05-16T13:56:46.444Z,9.40
2023-05-16T13:59:20.580Z,9.50
2023-05-16T14:01:52.537Z,9.30
2023-05-16T14:04:21.237Z,9.80
2023-05-16T14:06:49.400Z,9.90
2023-05-16T14:09:17.392Z,10.00
2023-05-16T14:11:45.448Z,9.60
2023-05-16T14:14:13.425Z,10.20
2023-05-16T14:16:45.939Z,10.90
2023-05-16T14:19:16.512Z,10.60
2023-05-16T14:21:45.601Z,11.90
2023-05-16T14:24:13.582Z,10.70
2023-05-16T14:26:41.862Z,11.40
2023-05-16T14:29:09.903Z,10.90
2023-05-16T14:31:38.340Z,11.50
2023-05-16T14:34:06.327Z,11.80
2023-05-16T14:36:34.279Z,13.00
2023-05-16T14:39:02.299Z,13.20
2023-05-16T14:41:30.941Z,25.80
2023-05-16T14:43:58.969Z,14.20
2023-05-16T14:46:27.150Z,12.80
2023-05-16T14:48:55.167Z,13.10
2023-05-16T14:51:23.093Z,14.40
2023-05-16T14:53:51.041Z,14.80
2023-05-16T14:56:18.961Z,13.30
2023-05-16T14:58:47.051Z,16.80
2023-05-16T15:01:16.907Z,16.10
2023-05-16T15:03:54.560Z,13.10
2023-05-16T15:06:25.396Z,14.50
2023-05-16T15:08:53.753Z,15.00
2023-05-16T15:11:21.973Z,15.40
2023-05-16T15:13:50.068Z,20.60
2023-05-16T15:16:18.504Z,17.20
2023-05-16T15:18:46.501Z,17.80
2023-05-16T15:21:14.532Z,14.40
2023-05-16T15:23:43.538Z,17.10
2023-05-16T15:26:11.656Z,17.40
2023-05-16T15:28:39.653Z,14.50
2023-05-16T15:31:07.605Z,14.30
2023-05-16T15:33:36.423Z,18.60
2023-05-16T15:36:05.154Z,14.20
2023-05-16T15:38:33.061Z,22.50
2023-05-16T15:41:15.924Z,15.80
2023-05-16T15:43:46.517Z,19.20
2023-05-16T15:46:14.894Z,18.90
2023-05-16T15:48:45.181Z,21.50
2023-05-16T15:51:13.972Z,16.10
2023-05-16T15:53:41.930Z,14.90
2023-05-16T15:56:10.167Z,17.40
2023-05-16T15:58:38.183Z,13.70
2023-05-16T16:01:06.220Z,16.40
2023-05-16T16:03:34.202Z,16.70
2023-05-16T16:06:02.393Z,13.90
2023-05-16T16:08:30.489Z,15.30
2023-05-16T16:10:58.652Z,18.70
2023-05-16T16:13:26.604Z,16.10
2023-05-16T16:15:55.071Z,16.20
2023-05-16T16:18:23.331Z,17.20
2023-05-16T16:20:53.241Z,17.50
2023-05-16T16:23:21.870Z,21.90
2023-05-16T16:25:50.438Z,25.50
2023-05-16T16:28:19.112Z,19.00
2023-05-16T16:30:50.606Z,17.40
2023-05-16T16:33:18.873Z,25.50
2023-05-16T16:35:47.082Z,20.40
2023-05-16T16:38:15.066Z,18.60
2023-05-16T16:40:43.042Z,22.90
2023-05-16T16:43:11.086Z,20.50
2023-05-16T16:45:39.029Z,18.30
2023-05-16T16:48:09.258Z,22.10
2023-05-16T16:50:37.764Z,17.70
2023-05-16T16:53:05.767Z,20.30
2023-05-16T16:55:34.282Z,24.50
2023-05-16T16:58:02.625Z,28.70
2023-05-16T17:00:31.723Z,26.20
2023-05-16T17:02:59.724Z,21.20
2023-05-16T17:05:28.130Z,19.50
2023-05-16T17:07:56.451Z,18.70
2023-05-16T17:10:24.648Z,22.00
2023-05-16T17:12:52.707Z,21.20
2023-05-16T17:15:21.106Z,20.60
2023-05-16T17:17:49.560Z,21.10
2023-05-16T17:20:17.738Z,20.30
2023-05-16T17:22:46.398Z,18.70
2023-05-16T17:25:14.470Z,18.40
2023-05-16T17:27:43.396Z,18.30
2023-05-16T17:30:13.085Z,16.90
2023-05-16T17:32:41.186Z,17.40
2023-05-16T17:35:09.346Z,19.20
2023-05-16T17:37:39.656Z,17.30
2023-05-16T17:40:10.601Z,16.50
2023-05-16T17:42:38.700Z,15.90
2023-05-16T17:45:08.140Z,16.90
2023-05-16T17:47:36.145Z,15.50
2023-05-16T17:50:07.209Z,16.60
2023-05-16T17:52:38.813Z,16.90
2023-05-16T17:55:12.288Z,17.20
2023-05-16T17:57:40.310Z,16.50
2023-05-16T18:00:09.431Z,16.40
2023-05-16T18:02:40.106Z,17.20
2023-05-16T18:05:08.582Z,14.50
2023-05-16T18:07:36.592Z,13.30
2023-05-16T18:10:05.255Z,12.40
2023-05-16T18:12:33.332Z,12.10
2023-05-16T18:15:01.789Z,11.70
2023-05-16T18:17:29.748Z,11.20
2023-05-16T18:19:59.023Z,11.80
2023-05-16T18:22:27.808Z,10.80
2023-05-16T18:24:58.035Z,10.10
2023-05-16T18:27:25.951Z,11.90
2023-05-16T18:29:54.037Z,9.40
2023-05-16T18:32:21.987Z,10.10
2023-05-16T18:34:50.610Z,10.00
2023-05-16T18:37:18.839Z,10.50
2023-05-16T18:39:49.060Z,10.10
2023-05-16T18:42:19.654Z,10.70
2023-05-16T18:44:47.584Z,9.60
2023-05-16T18:47:16.171Z,11.50
2023-05-16T18:49:44.251Z,10.40
2023-05-16T18:52:12.249Z,10.10
2023-05-16T18:54:40.179Z,10.10
2023-05-16T18:57:08.690Z,10.50
2023-05-16T18:59:37.359Z,9.80
2023-05-16T19:02:05.370Z,10.10
2023-05-16T19:04:34.111Z,10.20
2023-05-16T19:07:04.142Z,9.70
2023-05-16T19:09:33.729Z,10.00
2023-05-16T19:12:01.791Z,10.20
2023-05-16T19:14:29.876Z,10.70
2023-05-16T19:16:58.620Z,10.90
2023-05-16T19:19:28.035Z,11.30
2023-05-16T19:21:56.894Z,13.70
2023-05-16T19:24:26.195Z,11.50
2023-05-16T19:26:55.783Z,12.00
2023-05-16T19:29:23.750Z,10.70
2023-05-16T19:31:52.054Z,12.00
2023-05-16T19:34:21.554Z,12.00
2023-05-16T19:36:49.567Z,11.40
2023-05-16T19:39:17.631Z,11.30
2023-05-16T19:41:49.898Z,11.00
2023-05-16T19:44:20.008Z,11.70
2023-05-16T19:46:48.186Z,11.90
2023-05-16T19:49:19.540Z,13.10
2023-05-16T19:51:48.246Z,12.60
2023-05-16T19:54:16.463Z,13.80
2023-05-16T19:56:44.465Z,12.80
2023-05-16T19:59:12.441Z,11.70
2023-05-16T20:04:09.813Z,10.70
2023-05-16T20:06:38.283Z,10.60
2023-05-16T20:09:06.326Z,10.50
2023-05-16T20:11:35.793Z,10.90
2023-05-16T20:14:03.874Z,11.10
2023-05-16T20:16:35.638Z,10.60
2023-05-16T20:19:04.891Z,10.60
2023-05-16T20:21:33.114Z,12.20
2023-05-16T20:24:01.261Z,12.80
2023-05-16T20:26:29.312Z,12.10
2023-05-16T20:28:58.958Z,13.20
2023-05-16T20:31:27.099Z,12.30
2023-05-16T20:33:55.512Z,11.90
2023-05-16T20:36:23.492Z,11.80
2023-05-16T20:38:51.448Z,11.40
2023-05-16T20:41:19.390Z,11.80
2023-05-16T20:43:47.458Z,12.10
2023-05-16T20:46:17.406Z,11.00
2023-05-16T20:48:45.510Z,13.50
2023-05-16T20:51:13.573Z,13.50
2023-05-16T20:53:41.617Z,12.60
2023-05-16T20:56:09.626Z,13.20
2023-05-16T20:58:41.371Z,12.00
2023-05-16T21:01:09.532Z,11.80
2023-05-16T21:03:37.625Z,12.00
2023-05-16T21:06:06.266Z,11.80
2023-05-16T21:08:34.280Z,11.40
2023-05-16T21:11:02.391Z,10.70
2023-05-16T21:13:31.233Z,12.40
2023-05-16T21:15:59.183Z,11.60
2023-05-16T21:18:27.165Z,11.80
2023-05-16T21:20:55.186Z,11.60
2023-05-16T21:23:23.343Z,11.70
2023-05-16T21:25:51.421Z,10.70
2023-05-16T21:28:19.430Z,11.40
2023-05-16T21:30:47.594Z,11.00
2023-05-16T21:33:15.817Z,10.60
2023-05-16T21:35:43.856Z,9.90
2023-05-16T21:38:11.881Z,10.00
2023-05-16T21:40:39.827Z,10.10
2023-05-16T21:43:07.810Z,10.60
2023-05-16T21:45:36.107Z,10.60
2023-05-16T21:48:04.265Z,11.90
2023-05-16T21:50:33.240Z,12.20
2023-05-16T21:53:01.346Z,15.80
2023-05-16T21:55:29.334Z,16.20
2023-05-16T21:57:57.435Z,15.00
2023-05-16T22:00:25.483Z,12.50
2023-05-16T22:02:53.833Z,14.00
2023-05-16T22:05:21.801Z,14.00
2023-05-16T22:07:49.789Z,13.40
2023-05-16T22:10:18.847Z,13.60
2023-05-16T22:12:46.714Z,12.70
2023-05-16T22:15:14.749Z,13.60
2023-05-16T22:17:42.828Z,15.50
2023-05-16T22:20:11.180Z,15.90
2023-05-16T22:22:39.247Z,15.00
2023-05-16T22:25:07.545Z,14.90
2023-05-16T22:27:35.790Z,14.20
2023-05-16T22:30:04.330Z,12.60
2023-05-16T22:32:32.370Z,12.90
2023-05-16T22:35:00.531Z,12.30
2023-05-16T22:37:28.606Z,13.10
2023-05-16T22:39:57.228Z,11.70
2023-05-16T22:42:26.013Z,11.90
2023-05-16T22:44:53.980Z,11.90
2023-05-16T22:47:22.262Z,12.00
2023-05-16T22:49:50.181Z,11.90
2023-05-16T22:52:18.189Z,12.10
2023-05-16T22:54:46.157Z,12.20
2023-05-16T22:57:14.848Z,11.50
2023-05-16T22:59:43.145Z,11.30
2023-05-16T23:02:11.093Z,11.70
2023-05-16T23:04:39.101Z,10.90
2023-05-16T23:07:07.187Z,12.40
2023-05-16T23:09:35.209Z,11.80
2023-05-16T23:12:03.197Z,11.70
2023-05-16T23:14:31.177Z,14.00
2023-05-16T23:16:59.173Z,14.10
2023-05-16T23:19:27.228Z,14.40
2023-05-16T23:21:55.403Z,14.20
2023-05-16T23:24:23.965Z,14.10
2023-05-16T23:26:51.915Z,12.70
2023-05-16T23:29:19.994Z,13.00
2023-05-16T23:31:48.006Z,11.00
2023-05-16T23:34:16.097Z,11.30
2023-05-16T23:36:43.970Z,11.40
2023-05-16T23:39:11.999Z,11.70
2023-05-16T23:41:39.929Z,10.40
2023-05-16T23:44:07.925Z,10.70
2023-05-16T23:46:36.050Z,11.30
2023-05-16T23:49:04.382Z,10.60
2023-05-16T23:51:42.157Z,10.40
2023-05-16T23:54:20.370Z,10.70
2023-05-16T23:56:48.318Z,10.30
2023-05-16T23:59:16.628Z,10.80
